Time;durP1;ratioP1;P1;durP2;ratioP2;P2;SDS_P1;SDS_P2;PMS_P1;PMS_P2;Temp;Humidity;BMP_temperature;BMP_pressure;BME280_temperature;BME280_humidity;BME280_pressure;Samples;Min_cycle;Max_cycle;Signal;HPM_P1;HPM_P2
2021/10/31 00:02:03;;;;;;;0.20;0.20;;;;;;;;;;4894031;29;20040;-89
2021/10/31 00:04:29;;;;;;;0.20;0.20;;;;;;;;;;4916104;29;20028;-89
2021/10/31 00:06:55;;;;;;;0.20;0.20;;;;;;;;;;4914145;29;20561;-90
2021/10/31 00:09:21;;;;;;;0.30;0.30;;;;;;;;;;4916526;29;20032;-89
2021/10/31 00:11:47;;;;;;;0.22;0.22;;;;;;;;;;4915630;29;20398;-90
2021/10/31 00:14:13;;;;;;;0.20;0.20;;;;;;;;;;4915948;29;20118;-91
2021/10/31 00:16:39;;;;;;;0.20;0.20;;;;;;;;;;4911263;29;20027;-91
2021/10/31 00:19:06;;;;;;;3.80;0.32;;;;;;;;;;4900198;29;20048;-89
2021/10/31 00:21:33;;;;;;;0.20;0.20;;;;;;;;;;4916105;29;20028;-88
2021/10/31 00:23:59;;;;;;;0.20;0.20;;;;;;;;;;4917159;29;20039;-88
2021/10/31 00:26:25;;;;;;;0.20;0.20;;;;;;;;;;4900783;29;20119;-88
2021/10/31 00:28:51;;;;;;;0.20;0.20;;;;;;;;;;4904789;29;20028;-89
2021/10/31 00:31:17;;;;;;;0.30;0.30;;;;;;;;;;4915491;29;20518;-90
2021/10/31 00:33:44;;;;;;;0.75;0.30;;;;;;;;;;4898711;29;20557;-91
2021/10/31 00:36:10;;;;;;;0.20;0.20;;;;;;;;;;4915951;29;20032;-90
2021/10/31 00:38:36;;;;;;;0.90;0.30;;;;;;;;;;4902673;29;20093;-90
2021/10/31 00:41:02;;;;;;;0.20;0.20;;;;;;;;;;4907302;29;20028;-90
2021/10/31 00:43:28;;;;;;;0.57;0.57;;;;;;;;;;4898352;29;20123;-90
2021/10/31 00:45:54;;;;;;;0.20;0.20;;;;;;;;;;4898510;29;20055;-89
2021/10/31 00:48:20;;;;;;;0.30;0.30;;;;;;;;;;4915464;29;20056;-89
2021/10/31 00:50:50;;;;;;;0.20;0.20;;;16.10;76.90;;;;;;4900313;29;20807;-90
2021/10/31 00:53:17;;;;;;;0.20;0.20;;;16.10;77.00;;;;;;4917838;29;20609;-89
2021/10/31 00:55:43;;;;;;;0.30;0.30;;;;;;;;;;4918366;29;20507;-89
2021/10/31 00:58:13;;;;;;;0.30;0.30;;;16.00;77.30;;;;;;4917507;29;20604;-88
2021/10/31 01:00:39;;;;;;;0.30;0.30;;;;;;;;;;4900872;29;20191;-88
2021/10/31 01:03:05;;;;;;;0.20;0.20;;;;;;;;;;4918945;29;20123;-89
2021/10/31 01:05:34;;;;;;;0.20;0.20;;;;;;;;;;4918339;29;20589;-89
2021/10/31 01:08:32;;;;;;;0.20;0.20;;;15.90;78.00;;;;;;4913297;29;20528;-89
2021/10/31 01:11:05;;;;;;;0.28;0.28;;;;;;;;;;4817309;29;20660;-89
2021/10/31 01:13:42;;;;;;;0.10;0.10;;;;;;;;;;4830005;29;20049;-90
2021/10/31 01:16:36;;;;;;;0.20;0.20;;;15.90;77.50;;;;;;4842364;29;20116;-89
2021/10/31 01:19:34;;;;;;;0.20;0.20;;;16.00;77.70;;;;;;4824517;29;20492;-91
2021/10/31 01:22:15;;;;;;;0.20;0.20;;;;;;;;;;4789677;29;20054;-89
2021/10/31 01:25:06;;;;;;;0.20;0.20;;;16.00;77.90;;;;;;4787957;29;20031;-89
2021/10/31 01:27:53;;;;;;;0.30;0.30;;;16.00;78.30;;;;;;4802275;29;20059;-89
2021/10/31 01:30:38;;;;;;;0.20;0.20;;;16.00;78.60;;;;;;4805627;29;20161;-89
2021/10/31 01:33:04;;;;;;;0.22;0.22;;;;;;;;;;4790798;29;20039;-90
2021/10/31 01:35:35;;;;;;;0.45;0.30;;;;;;;;;;4801572;29;20042;-90
2021/10/31 01:38:37;;;;;;;0.20;0.20;;;15.70;79.80;;;;;;4805230;29;20141;-91
2021/10/31 01:41:03;;;;;;;0.28;0.28;;;;;;;;;;4804445;29;20046;-89
2021/10/31 01:43:39;;;;;;;0.20;0.20;;;;;;;;;;4804967;29;20035;-90
2021/10/31 01:46:05;;;;;;;0.20;0.20;;;;;;;;;;4818219;29;20049;-90
2021/10/31 01:48:40;;;;;;;0.20;0.20;;;;;;;;;;4844523;29;20028;-89
2021/10/31 01:51:13;;;;;;;0.20;0.20;;;15.70;80.00;;;;;;4859206;29;20057;-89
2021/10/31 01:53:53;;;;;;;0.52;0.32;;;15.70;80.20;;;;;;4848835;29;20038;-90
2021/10/31 01:56:21;;;;;;;0.20;0.20;;;15.60;80.30;;;;;;4853670;29;20416;-89
2021/10/31 01:58:53;;;;;;;0.20;0.20;;;15.60;80.40;;;;;;4869449;29;20040;-89
2021/10/31 02:01:19;;;;;;;0.20;0.20;;;;;;;;;;4917361;29;20135;-91
2021/10/31 02:03:48;;;;;;;0.20;0.20;;;15.70;79.80;;;;;;4918064;29;20024;-88
2021/10/31 02:06:16;;;;;;;0.20;0.20;;;15.70;79.10;;;;;;4918370;29;20476;-88
2021/10/31 02:08:44;;;;;;;0.20;0.20;;;15.70;79.40;;;;;;4917885;29;20115;-90
2021/10/31 02:11:11;;;;;;;0.43;0.20;;;;;;;;;;4917646;29;20516;-90
2021/10/31 02:13:40;;;;;;;0.20;0.20;;;15.80;79.50;;;;;;4917631;29;20036;-89
2021/10/31 02:16:07;;;;;;;0.20;0.20;;;15.70;80.60;;;;;;4917376;29;20032;-89
2021/10/31 02:18:33;;;;;;;0.28;0.28;;;;;;;;;;4902354;29;20079;-90
2021/10/31 02:21:00;;;;;;;0.28;0.28;;;15.60;81.70;;;;;;4902603;29;20040;-89
2021/10/31 02:23:28;;;;;;;1.00;0.45;;;;;;;;;;4912868;29;20550;-89
2021/10/31 02:25:56;;;;;;;0.30;0.30;;;;;;;;;;4917769;29;20502;-90
2021/10/31 02:28:22;;;;;;;0.20;0.20;;;;;;;;;;4917778;29;20075;-91
2021/10/31 02:30:48;;;;;;;0.45;0.30;;;;;;;;;;4916762;29;20032;-90
2021/10/31 02:33:14;;;;;;;1.23;0.30;;;;;;;;;;4917263;29;20125;-89
2021/10/31 02:35:40;;;;;;;0.47;0.30;;;;;;;;;;4916862;29;20055;-89
2021/10/31 02:38:07;;;;;;;0.20;0.20;;;;;;;;;;4919576;29;20521;-89
2021/10/31 02:40:36;;;;;;;0.80;0.60;;;;;;;;;;4917397;29;20056;-90
2021/10/31 02:43:03;;;;;;;0.20;0.20;;;15.50;86.60;;;;;;4917201;29;20044;-89
2021/10/31 02:45:29;;;;;;;0.30;0.30;;;;;;;;;;4917014;29;20032;-89
2021/10/31 02:48:07;;;;;;;0.20;0.20;;;15.40;86.00;;;;;;4899870;29;20057;-89
2021/10/31 02:50:41;;;;;;;0.20;0.20;;;15.40;86.00;;;;;;4904036;29;20024;-90
2021/10/31 02:53:33;;;;;;;0.20;0.20;;;;;;;;;;4914865;29;20083;-88
2021/10/31 02:56:02;;;;;;;0.22;0.22;;;;;;;;;;4916816;29;20056;-89
2021/10/31 02:58:35;;;;;;;0.30;0.30;;;;;;;;;;4915963;29;20052;-90
2021/10/31 03:01:02;;;;;;;0.20;0.20;;;;;;;;;;4917052;29;20062;-90
2021/10/31 03:03:30;;;;;;;0.77;0.30;;;15.20;86.30;;;;;;4920045;29;20032;-91
2021/10/31 03:05:59;;;;;;;2.00;0.40;;;;;;;;;;4918695;29;20038;-90
2021/10/31 03:08:26;;;;;;;0.20;0.20;;;;;;;;;;4926903;29;20046;-89
2021/10/31 03:10:55;;;;;;;0.40;0.30;;;15.30;85.30;;;;;;4924586;29;20433;-88
2021/10/31 03:13:21;;;;;;;0.40;0.40;;;;;;;;;;4915800;29;20519;-90
2021/10/31 03:15:47;;;;;;;0.20;0.20;;;;;;;;;;4931303;29;20051;-89
2021/10/31 03:18:13;;;;;;;0.63;0.40;;;;;;;;;;4916640;29;20131;-90
2021/10/31 03:20:40;;;;;;;0.50;0.47;;;;;;;;;;4916691;29;20103;-89
2021/10/31 03:23:06;;;;;;;0.30;0.30;;;;;;;;;;4916170;29;20028;-90
2021/10/31 03:25:32;;;;;;;0.28;0.22;;;;;;;;;;4899212;29;20485;-89
2021/10/31 03:27:58;;;;;;;0.20;0.20;;;;;;;;;;4899046;29;20024;-89
2021/10/31 03:30:24;;;;;;;0.68;0.50;;;;;;;;;;4899860;29;20031;-90
2021/10/31 03:32:50;;;;;;;0.30;0.30;;;;;;;;;;4882511;29;20152;-89
2021/10/31 03:35:16;;;;;;;0.20;0.20;;;;;;;;;;4910027;29;20043;-90
2021/10/31 03:37:42;;;;;;;0.28;0.28;;;;;;;;;;4898818;29;20024;-89
2021/10/31 03:40:09;;;;;;;0.30;0.30;;;;;;;;;;4918460;29;20044;-90
2021/10/31 03:42:35;;;;;;;0.20;0.20;;;;;;;;;;4896675;29;20119;-89
2021/10/31 03:45:01;;;;;;;0.35;0.35;;;;;;;;;;4915879;29;20497;-90
2021/10/31 03:47:29;;;;;;;0.63;0.40;;;;;;;;;;4915148;29;20051;-90
2021/10/31 03:49:55;;;;;;;3.05;0.60;;;;;;;;;;4916173;29;20110;-89
2021/10/31 03:52:21;;;;;;;0.45;0.40;;;;;;;;;;4903309;29;20040;-90
2021/10/31 03:54:47;;;;;;;0.45;0.30;;;;;;;;;;4913665;29;20032;-89
2021/10/31 03:57:13;;;;;;;0.30;0.30;;;;;;;;;;4897193;29;20129;-90
2021/10/31 03:59:39;;;;;;;0.30;0.30;;;;;;;;;;4897079;29;20454;-89
2021/10/31 04:02:05;;;;;;;0.38;0.30;;;;;;;;;;4902872;29;20127;-89
2021/10/31 04:04:31;;;;;;;0.73;0.30;;;;;;;;;;4902988;29;20025;-90
2021/10/31 04:06:57;;;;;;;0.20;0.20;;;;;;;;;;4880204;29;20052;-89
2021/10/31 04:09:23;;;;;;;0.30;0.30;;;;;;;;;;4914160;29;20557;-89
2021/10/31 04:11:49;;;;;;;0.20;0.20;;;;;;;;;;4908069;29;20111;-90
2021/10/31 04:14:15;;;;;;;0.20;0.20;;;;;;;;;;4906989;29;20032;-89
2021/10/31 04:16:41;;;;;;;0.30;0.30;;;;;;;;;;4906365;29;20063;-89
2021/10/31 04:19:08;;;;;;;0.20;0.20;;;;;;;;;;4893599;29;20116;-89
2021/10/31 04:21:34;;;;;;;0.30;0.30;;;;;;;;;;4913939;29;20043;-90
2021/10/31 04:24:00;;;;;;;0.20;0.20;;;;;;;;;;4896876;29;20809;-90
2021/10/31 04:26:26;;;;;;;0.20;0.20;;;;;;;;;;4902003;29;20124;-89
2021/10/31 04:28:52;;;;;;;0.20;0.20;;;;;;;;;;4902622;29;20044;-87
2021/10/31 04:31:18;;;;;;;1.10;0.30;;;;;;;;;;4904282;29;20060;-89
2021/10/31 04:33:44;;;;;;;0.30;0.30;;;;;;;;;;4919496;29;20086;-89
2021/10/31 04:36:10;;;;;;;0.40;0.40;;;;;;;;;;4900379;29;20039;-88
2021/10/31 04:38:36;;;;;;;0.35;0.22;;;;;;;;;;4902716;29;20051;-88
2021/10/31 04:41:04;;;;;;;0.57;0.30;;;;;;;;;;4910794;29;20028;-88
2021/10/31 04:43:30;;;;;;;0.55;0.30;;;;;;;;;;4917506;29;20084;-89
2021/10/31 04:45:56;;;;;;;0.47;0.40;;;;;;;;;;4917539;29;20389;-88
2021/10/31 04:48:24;;;;;;;0.45;0.43;;;;;;;;;;4902654;29;20037;-88
2021/10/31 04:50:51;;;;;;;0.80;0.30;;;14.90;90.60;;;;;;4904077;29;20032;-89
2021/10/31 04:53:17;;;;;;;0.25;0.25;;;;;;;;;;4921624;29;20037;-90
2021/10/31 04:55:43;;;;;;;0.30;0.30;;;;;;;;;;4921334;29;20118;-90
2021/10/31 04:58:10;;;;;;;0.30;0.30;;;;;;;;;;4903928;29;20068;-90
2021/10/31 05:00:36;;;;;;;1.55;0.65;;;15.00;90.10;;;;;;4905247;29;20024;-90
2021/10/31 05:03:02;;;;;;;0.52;0.40;;;;;;;;;;4920035;29;20067;-90
2021/10/31 05:05:28;;;;;;;0.68;0.50;;;;;;;;;;4904180;29;20028;-89
2021/10/31 05:07:55;;;;;;;0.60;0.50;;;;;;;;;;4921307;29;20466;-88
2021/10/31 05:10:23;;;;;;;0.65;0.30;;;;;;;;;;4920057;29;20080;-89
2021/10/31 05:12:49;;;;;;;2.47;0.30;;;;;;;;;;4921292;29;20386;-90
2021/10/31 05:15:15;;;;;;;1.00;0.30;;;;;;;;;;4918557;29;20132;-88
2021/10/31 05:17:41;;;;;;;0.30;0.30;;;;;;;;;;4923739;29;20048;-88
2021/10/31 05:20:09;;;;;;;0.40;0.30;;;14.80;90.70;;;;;;4912131;29;20024;-89
2021/10/31 05:22:35;;;;;;;;;;;;;;;;;;4893440;29;20059;-89
2021/10/31 05:25:01;;;;;;;0.30;0.30;;;;;;;;;;4920798;29;20344;-88
2021/10/31 05:27:27;;;;;;;1.67;0.40;;;;;;;;;;4904740;29;20024;-88
2021/10/31 05:29:53;;;;;;;0.85;0.50;;;;;;;;;;4921307;29;20036;-90
2021/10/31 05:32:19;;;;;;;0.35;0.30;;;;;;;;;;4919161;29;20052;-91
2021/10/31 05:34:45;;;;;;;0.50;0.50;;;;;;;;;;4904266;29;20833;-89
2021/10/31 05:37:12;;;;;;;0.43;0.43;;;;;;;;;;4919174;29;20060;-90
2021/10/31 05:39:38;;;;;;;0.30;0.30;;;;;;;;;;4918664;29;20107;-90
2021/10/31 05:42:04;;;;;;;0.43;0.38;;;;;;;;;;4901454;29;20597;-90
2021/10/31 05:44:30;;;;;;;0.63;0.63;;;;;;;;;;4901411;29;20038;-89
2021/10/31 05:46:56;;;;;;;0.30;0.30;;;;;;;;;;4901030;29;20046;-89
2021/10/31 05:49:22;;;;;;;0.40;0.40;;;;;;;;;;4901828;29;20036;-89
2021/10/31 05:51:48;;;;;;;1.00;0.40;;;;;;;;;;4917650;29;20106;-89
2021/10/31 05:54:14;;;;;;;1.77;0.40;;;;;;;;;;4904100;29;20040;-90
2021/10/31 05:56:40;;;;;;;0.52;0.40;;;;;;;;;;4900787;29;20032;-90
2021/10/31 05:59:06;;;;;;;0.40;0.30;;;;;;;;;;4901291;29;20125;-89
2021/10/31 06:01:32;;;;;;;0.45;0.43;;;;;;;;;;4901346;29;20028;-89
2021/10/31 06:04:00;;;;;;;0.47;0.45;;;;;;;;;;4916114;29;20493;-87
2021/10/31 06:06:26;;;;;;;0.50;0.38;;;;;;;;;;4901193;29;20028;-89
2021/10/31 06:08:52;;;;;;;5.38;0.43;;;;;;;;;;4917438;29;20087;-91
2021/10/31 06:11:19;;;;;;;0.65;0.50;;;;;;;;;;4901197;29;20025;-89
2021/10/31 06:13:45;;;;;;;2.97;0.45;;;;;;;;;;4919411;29;20042;-89
2021/10/31 06:16:11;;;;;;;0.85;0.50;;;;;;;;;;4896863;29;20170;-90
2021/10/31 06:18:37;;;;;;;0.30;0.30;;;;;;;;;;4917602;29;20068;-89
2021/10/31 06:21:04;;;;;;;0.50;0.50;;;;;;;;;;4917644;29;20035;-88
2021/10/31 06:23:30;;;;;;;2.28;0.40;;;;;;;;;;4916374;29;20064;-88
2021/10/31 06:25:56;;;;;;;0.57;0.50;;;;;;;;;;4917046;29;20020;-89
2021/10/31 06:28:22;;;;;;;0.65;0.55;;;;;;;;;;4916466;29;20031;-88
2021/10/31 06:30:48;;;;;;;0.93;0.43;;;;;;;;;;4916055;29;20024;-88
2021/10/31 06:33:14;;;;;;;0.52;0.52;;;;;;;;;;4897930;29;20119;-87
2021/10/31 06:35:40;;;;;;;0.45;0.45;;;;;;;;;;4910950;29;20087;-89
2021/10/31 06:38:06;;;;;;;0.50;0.30;;;;;;;;;;4915523;29;20075;-88
2021/10/31 06:40:32;;;;;;;0.40;0.40;;;;;;;;;;4903571;29;20056;-90
2021/10/31 06:42:58;;;;;;;3.10;0.60;;;;;;;;;;4916344;29;20545;-88
2021/10/31 06:45:24;;;;;;;0.52;0.50;;;;;;;;;;4916752;29;20031;-87
2021/10/31 06:47:50;;;;;;;0.63;0.52;;;;;;;;;;4915821;29;20074;-88
2021/10/31 06:50:44;;;;;;;0.47;0.45;;;;;;;;;;5090439;27;20779;-92
2021/10/31 06:53:10;;;;;;;0.80;0.77;;;;;;;;;;5077300;28;20063;-90
2021/10/31 06:55:36;;;;;;;0.30;0.30;;;;;;;;;;5070200;28;20060;-91
2021/10/31 06:58:03;;;;;;;2.70;0.60;;;;;;;;;;5069498;28;20020;-91
2021/10/31 07:00:29;;;;;;;0.43;0.43;;;;;;;;;;5067511;28;20573;-91
2021/10/31 07:02:55;;;;;;;0.65;0.65;;;;;;;;;;5068983;28;20044;-90
2021/10/31 07:05:21;;;;;;;0.65;0.65;;;;;;;;;;5069177;28;20035;-92
2021/10/31 07:07:47;;;;;;;0.88;0.85;;;;;;;;;;5071948;28;20489;-91
2021/10/31 07:10:14;;;;;;;0.68;0.68;;;;;;;;;;5065573;28;20112;-91
2021/10/31 07:12:41;;;;;;;1.43;0.90;;;14.80;91.00;;;;;;5068574;28;20103;-91
2021/10/31 07:15:08;;;;;;;0.60;0.57;;;;;;;;;;5065374;28;20029;-91
2021/10/31 07:17:34;;;;;;;0.85;0.70;;;;;;;;;;5066197;28;20032;-91
2021/10/31 07:20:00;;;;;;;0.50;0.43;;;;;;;;;;5066796;28;20401;-91
2021/10/31 07:22:26;;;;;;;1.35;1.05;;;;;;;;;;5065520;28;20052;-91
2021/10/31 07:24:53;;;;;;;0.73;0.50;;;;;;;;;;5082432;28;20035;-90
2021/10/31 07:27:19;;;;;;;3.35;1.05;;;;;;;;;;5065435;28;20035;-91
2021/10/31 07:29:45;;;;;;;3.47;1.40;;;;;;;;;;5066385;28;20032;-91
2021/10/31 07:32:11;;;;;;;4.40;1.10;;;;;;;;;;5067395;28;20036;-90
2021/10/31 07:34:39;;;;;;;0.65;0.50;;;;;;;;;;5065876;28;20026;-91
2021/10/31 07:37:05;;;;;;;0.55;0.55;;;;;;;;;;5065687;28;20513;-91
2021/10/31 07:39:32;;;;;;;0.50;0.50;;;;;;;;;;5067663;28;20036;-91
2021/10/31 07:41:58;;;;;;;2.10;1.13;;;;;;;;;;5065805;28;20029;-92
2021/10/31 07:44:24;;;;;;;1.55;0.88;;;;;;;;;;5067666;28;20041;-92
2021/10/31 07:46:50;;;;;;;0.47;0.47;;;;;;;;;;5068389;28;20021;-91
2021/10/31 07:49:16;;;;;;;0.65;0.65;;;;;;;;;;5062363;28;20063;-90
2021/10/31 07:51:42;;;;;;;1.67;0.60;;;;;;;;;;5066253;28;20036;-90
2021/10/31 07:54:09;;;;;;;3.80;1.52;;;;;;;;;;5065111;28;20107;-90
2021/10/31 07:56:36;;;;;;;1.60;0.50;;;;;;;;;;5063544;28;20074;-89
2021/10/31 07:59:02;;;;;;;0.40;0.40;;;;;;;;;;5057095;28;20099;-90
2021/10/31 08:01:28;;;;;;;0.60;0.40;;;;;;;;;;5044732;28;20021;-92
2021/10/31 08:03:54;;;;;;;1.17;0.75;;;;;;;;;;5052588;28;20029;-92
2021/10/31 08:06:21;;;;;;;2.25;0.80;;;17.50;80.60;;;;;;5063288;28;20025;-93
2021/10/31 08:08:47;;;;;;;6.32;1.45;;;;;;;;;;5052500;28;20048;-89
2021/10/31 08:11:13;;;;;;;1.40;0.68;;;;;;;;;;5050637;28;20029;-89
2021/10/31 08:13:40;;;;;;;0.77;0.68;;;;;;;;;;5067466;28;20151;-89
2021/10/31 08:16:06;;;;;;;1.20;0.90;;;;;;;;;;5045272;28;20051;-87
2021/10/31 08:18:32;;;;;;;1.67;0.50;;;;;;;;;;5052611;28;20486;-90
2021/10/31 08:20:58;;;;;;;1.33;0.75;;;;;;;;;;5052110;28;20037;-89
2021/10/31 08:23:26;;;;;;;2.13;1.05;;;;;;;;;;5050368;28;20108;-88
2021/10/31 08:25:52;;;;;;;1.05;0.55;;;;;;;;;;5046189;28;20035;-87
2021/10/31 08:28:19;;;;;;;0.82;0.50;;;17.10;83.50;;;;;;5052098;28;20498;-88
2021/10/31 08:30:54;;;;;;;;;;;17.10;84.00;;;;;;5044165;28;20449;-89
2021/10/31 08:33:26;;;;;;;0.50;0.32;;;;;;;;;;5048197;28;19916;-90
2021/10/31 08:35:53;;;;;;;0.98;0.55;;;;;;;;;;5050394;28;20104;-91
2021/10/31 08:38:19;;;;;;;2.67;1.10;;;;;;;;;;5047902;28;20025;-91
2021/10/31 08:40:48;;;;;;;0.85;0.60;;;17.10;83.60;;;;;;5055642;28;20033;-90
2021/10/31 08:43:14;;;;;;;0.80;0.80;;;;;;;;;;5055072;28;20040;-90
2021/10/31 08:45:41;;;;;;;1.02;0.40;;;17.10;83.80;;;;;;5053536;28;20061;-90
2021/10/31 08:48:08;;;;;;;1.25;0.68;;;17.30;84.60;;;;;;5051661;28;20067;-90
2021/10/31 08:50:34;;;;;;;0.87;0.40;;;;;;;;;;5069292;28;20052;-91
2021/10/31 08:53:02;;;;;;;1.30;0.45;;;17.40;82.90;;;;;;5078476;28;20402;-92
2021/10/31 08:55:28;;;;;;;1.10;0.68;;;;;;;;;;5053108;28;20410;-91
2021/10/31 08:57:54;;;;;;;0.93;0.60;;;;;;;;;;5042776;28;20032;-91
2021/10/31 09:00:20;;;;;;;0.52;0.40;;;;;;;;;;5050050;28;20024;-92
2021/10/31 09:02:46;;;;;;;0.47;0.40;;;;;;;;;;5049565;28;20512;-91
2021/10/31 09:05:12;;;;;;;1.00;0.35;;;;;;;;;;5050746;28;20025;-90
2021/10/31 09:07:38;;;;;;;2.00;0.95;;;;;;;;;;5052884;28;20108;-90
2021/10/31 09:10:04;;;;;;;0.80;0.60;;;;;;;;;;5066376;28;20525;-90
2021/10/31 09:12:30;;;;;;;0.90;0.65;;;;;;;;;;5052499;28;20082;-92
2021/10/31 09:14:56;;;;;;;1.00;0.40;;;;;;;;;;5073033;28;20120;-89
2021/10/31 09:17:23;;;;;;;1.55;0.40;;;;;;;;;;5051096;28;20063;-90
2021/10/31 09:19:49;;;;;;;0.80;0.47;;;;;;;;;;5051579;28;20033;-88
2021/10/31 09:22:15;;;;;;;0.63;0.40;;;;;;;;;;5065665;28;20033;-87
2021/10/31 09:24:41;;;;;;;0.50;0.30;;;;;;;;;;5066756;28;20079;-89
2021/10/31 09:27:07;;;;;;;1.58;0.45;;;;;;;;;;5051811;28;20025;-88
2021/10/31 09:29:33;;;;;;;0.30;0.30;;;;;;;;;;5065172;28;20045;-90
2021/10/31 09:31:59;;;;;;;1.05;0.52;;;;;;;;;;5053158;28;20025;-89
2021/10/31 09:34:28;;;;;;;0.68;0.50;;;;;;;;;;5050431;28;20040;-89
2021/10/31 09:36:54;;;;;;;1.50;0.82;;;;;;;;;;5068976;28;20059;-89
2021/10/31 09:39:20;;;;;;;0.90;0.73;;;;;;;;;;5054862;28;20450;-92
2021/10/31 09:41:46;;;;;;;0.43;0.40;;;;;;;;;;5065370;28;20099;-90
2021/10/31 09:44:20;;;;;;;0.73;0.50;;;;;;;;;;5051052;28;20021;-90
2021/10/31 09:46:46;;;;;;;0.90;0.30;;;;;;;;;;5044352;28;20036;-89
2021/10/31 09:49:16;;;;;;;1.00;0.57;;;19.50;72.60;;;;;;5047901;28;20052;-90
2021/10/31 09:51:43;;;;;;;0.40;0.40;;;19.20;73.90;;;;;;5068163;28;20074;-89
2021/10/31 09:54:13;;;;;;;0.85;0.45;;;;;;;;;;5045881;28;20052;-91
2021/10/31 09:56:39;;;;;;;1.33;0.55;;;18.90;74.00;;;;;;5052939;28;20052;-90
2021/10/31 09:59:16;;;;;;;1.40;0.70;;;18.90;74.00;;;;;;5067765;28;20025;-90
2021/10/31 10:02:12;;;;;;;0.50;0.40;;;18.70;74.80;;;;;;5050772;28;20036;-90
2021/10/31 10:04:49;;;;;;;0.77;0.60;;;18.60;91.70;;;;;;5031880;28;20128;-89
2021/10/31 10:07:16;;;;;;;1.65;0.68;;;18.60;74.50;;;;;;5033055;28;20029;-90
2021/10/31 10:09:54;;;;;;;0.88;0.85;;;18.70;74.40;;;;;;5067752;28;20037;-91
2021/10/31 10:12:21;;;;;;;0.88;0.60;;;18.60;74.40;;;;;;5031523;28;20056;-89
2021/10/31 10:14:48;;;;;;;;;;;18.60;74.80;;;;;;5056685;28;20516;-89
2021/10/31 10:17:14;;;;;;;0.43;0.30;;;;;;;;;;5043649;28;19915;-91
2021/10/31 10:19:52;;;;;;;0.98;0.50;;;18.60;74.10;;;;;;5062760;28;20397;-90
2021/10/31 10:22:21;;;;;;;0.85;0.38;;;18.60;73.50;;;;;;5046319;28;20029;-90
2021/10/31 10:24:49;;;;;;;0.98;0.30;;;;;;;;;;5032018;28;20025;-89
2021/10/31 10:27:15;;;;;;;0.20;0.20;;;;;;;;;;5048911;28;20037;-90
2021/10/31 10:29:43;;;;;;;0.65;0.40;;;18.90;72.10;;;;;;5051837;28;20087;-92
2021/10/31 10:32:15;;;;;;;0.70;0.35;;;19.20;72.50;;;;;;5049802;28;20040;-87
2021/10/31 10:34:55;;;;;;;0.77;0.40;;;19.20;70.90;;;;;;5048069;28;20028;-89
2021/10/31 10:37:41;;;;;;;0.73;0.20;;;19.40;71.10;;;;;;5052955;28;20032;-89
2021/10/31 10:40:17;;;;;;;0.60;0.60;;;19.40;69.10;;;;;;5049036;28;20398;-90
2021/10/31 10:42:50;;;;;;;0.68;0.32;;;19.70;68.30;;;;;;5044770;28;20036;-89
2021/10/31 10:45:19;;;;;;;0.20;0.20;;;19.90;65.80;;;;;;5051311;28;20020;-89
2021/10/31 10:47:48;;;;;;;0.38;0.30;;;;;;;;;;5063757;28;20636;-89
2021/10/31 10:50:20;;;;;;;0.70;0.50;;;20.10;65.40;;;;;;5048375;28;20044;-89
2021/10/31 10:52:46;;;;;;;0.22;0.22;;;20.00;64.80;;;;;;5046968;28;20497;-89
2021/10/31 10:55:12;;;;;;;0.40;0.40;;;;;;;;;;5047196;28;20407;-88
2021/10/31 10:57:44;;;;;;;0.95;0.32;;;20.30;64.60;;;;;;5031252;28;20100;-89
2021/10/31 11:00:10;;;;;;;0.20;0.20;;;;;;;;;;5048757;28;20600;-89
2021/10/31 11:02:36;;;;;;;2.25;0.30;;;;;;;;;;5048311;28;20455;-88
2021/10/31 11:05:11;;;;;;;0.38;0.38;;;20.80;64.70;;;;;;5048123;28;20025;-88
2021/10/31 11:07:42;;;;;;;0.28;0.20;;;20.50;64.30;;;;;;5045947;28;20118;-88
2021/10/31 11:10:18;;;;;;;1.38;0.50;;;20.40;65.70;;;;;;5052014;28;20033;-88
2021/10/31 11:12:45;;;;;;;0.30;0.20;;;20.30;66.20;;;;;;5037702;28;20031;-90
2021/10/31 11:15:16;;;;;;;0.30;0.30;;;;;;;;;;5066702;28;20072;-89
2021/10/31 11:17:44;;;;;;;1.88;0.50;;;20.10;65.60;;;;;;5046857;28;20108;-89
2021/10/31 11:20:12;;;;;;;0.28;0.28;;;20.10;66.00;;;;;;5034461;28;20045;-90
2021/10/31 11:22:42;;;;;;;0.43;0.32;;;20.00;66.40;;;;;;5033551;28;20607;-89
2021/10/31 11:25:10;;;;;;;1.77;0.38;;;;;;;;;;5050199;28;20036;-88
2021/10/31 11:27:37;;;;;;;0.82;0.43;;;20.20;66.80;;;;;;5050367;28;20074;-88
2021/10/31 11:30:03;;;;;;;0.55;0.43;;;;;;;;;;5049293;28;20033;-89
2021/10/31 11:32:29;;;;;;;0.30;0.30;;;;;;;;;;5041778;28;20064;-88
2021/10/31 11:34:58;;;;;;;0.20;0.20;;;20.70;64.80;;;;;;5046088;28;20106;-89
2021/10/31 11:37:34;;;;;;;1.05;0.38;;;;;;;;;;5048494;28;20024;-88
2021/10/31 11:40:03;;;;;;;0.88;0.38;;;21.00;63.30;;;;;;5052562;28;20029;-89
2021/10/31 11:42:35;;;;;;;0.20;0.20;;;;;;;;;;5052108;28;20025;-89
2021/10/31 11:45:01;;;;;;;0.73;0.40;;;;;;;;;;5050447;28;20032;-89
2021/10/31 11:47:29;;;;;;;0.30;0.20;;;;;;;;;;5066409;28;20378;-90
2021/10/31 11:50:08;;;;;;;0.25;0.25;;;21.40;61.70;;;;;;5050738;28;20057;-88
2021/10/31 11:52:47;;;;;;;3.35;0.40;;;21.60;60.60;;;;;;5049884;28;20404;-88
2021/10/31 11:55:25;;;;;;;0.40;0.40;;;21.50;79.30;;;;;;5037096;28;20040;-90
2021/10/31 11:57:55;;;;;;;2.92;0.30;;;21.60;78.90;;;;;;5052629;28;20086;-90
2021/10/31 12:00:22;;;;;;;1.40;0.50;;;;;;;;;;5053184;28;20103;-89
2021/10/31 12:02:50;;;;;;;1.20;0.50;;;21.50;60.30;;;;;;5049827;28;20040;-88
2021/10/31 12:05:36;;;;;;;0.30;0.20;;;21.50;60.30;;;;;;5064619;28;20029;-89
2021/10/31 12:08:03;;;;;;;0.20;0.20;;;21.60;59.70;;;;;;5049015;28;20049;-89
2021/10/31 12:10:47;;;;;;;0.98;0.65;;;21.70;60.00;;;;;;5049624;28;20041;-89
2021/10/31 12:13:23;;;;;;;0.60;0.45;;;21.60;59.30;;;;;;5034390;28;20033;-89
2021/10/31 12:15:58;;;;;;;0.32;0.32;;;;;;;;;;5051554;28;20029;-88
2021/10/31 12:18:49;;;;;;;1.17;0.40;;;21.60;59.10;;;;;;5034621;28;20033;-91
2021/10/31 12:21:23;;;;;;;0.47;0.30;;;21.30;60.30;;;;;;5052130;28;20032;-89
2021/10/31 12:24:00;;;;;;;1.95;0.20;;;21.30;60.50;;;;;;5048555;28;20120;-89
2021/10/31 12:26:32;;;;;;;0.98;0.32;;;21.30;60.80;;;;;;5048516;28;20033;-89
2021/10/31 12:29:08;;;;;;;0.30;0.30;;;21.30;67.20;;;;;;5052409;28;20041;-88
2021/10/31 12:31:34;;;;;;;0.65;0.40;;;;;;;;;;5050680;28;20037;-89
2021/10/31 12:34:03;;;;;;;2.03;0.50;;;;;;;;;;5050558;28;20024;-86
2021/10/31 12:36:33;;;;;;;0.40;0.40;;;21.10;61.60;;;;;;5047611;28;20060;-89
2021/10/31 12:38:59;;;;;;;0.28;0.28;;;;;;;;;;5051657;28;20036;-89
2021/10/31 12:41:34;;;;;;;1.52;0.32;;;21.10;75.80;;;;;;5043566;28;20063;-88
2021/10/31 12:44:09;;;;;;;0.50;0.40;;;;;;;;;;5048269;28;20025;-89
2021/10/31 12:46:35;;;;;;;0.85;0.65;;;;;;;;;;5049164;28;20060;-89
2021/10/31 12:49:04;;;;;;;1.77;0.30;;;21.20;61.10;;;;;;5050498;28;20049;-88
2021/10/31 12:54:23;;;;;;;2.25;0.47;;;21.10;81.30;;;;;;5031200;28;20041;-88
2021/10/31 12:56:50;;;;;;;0.95;0.52;;;;;;;;;;5047204;28;20393;-89
2021/10/31 12:59:17;;;;;;;1.37;0.67;;;;;;;;;;5066786;28;20060;-88
2021/10/31 13:01:44;;;;;;;3.17;0.90;;;21.10;60.10;;;;;;5064346;28;20278;-87
2021/10/31 13:04:10;;;;;;;;;;;;;;;;;;5049241;28;20033;-88
2021/10/31 13:06:55;;;;;;;1.50;0.35;;;21.10;60.40;;;;;;5067207;28;19904;-87
2021/10/31 13:09:22;;;;;;;0.60;0.47;;;21.00;61.40;;;;;;5060606;28;20037;-87
2021/10/31 13:11:48;;;;;;;0.60;0.30;;;;;;;;;;5049675;28;20104;-88
2021/10/31 13:14:31;;;;;;;2.95;0.85;;;20.80;61.00;;;;;;5051909;28;20025;-87
2021/10/31 13:17:02;;;;;;;1.50;0.80;;;20.50;61.90;;;;;;5046721;28;20044;-87
2021/10/31 13:19:39;;;;;;;0.63;0.20;;;20.40;61.80;;;;;;5047289;28;20456;-88
2021/10/31 13:22:21;;;;;;;10.20;1.27;;;20.20;62.00;;;;;;5048691;28;20441;-89
2021/10/31 13:24:51;;;;;;;1.00;0.47;;;;;;;;;;5036626;28;20033;-96
2021/10/31 13:27:21;;;;;;;0.57;0.52;;;;;;;;;;5091307;28;20028;-96
2021/10/31 13:29:48;;;;;;;0.35;0.30;;;;;;;;;;5075374;28;20029;-96
2021/10/31 13:32:15;;;;;;;2.35;0.40;;;;;;;;;;5070941;28;20025;-95
2021/10/31 13:34:41;;;;;;;;;;;;;;;;;;5080078;28;20028;-96
2021/10/31 13:37:13;;;;;;;3.42;0.70;;;;;;;;;;5072606;28;20002;-96
2021/10/31 13:39:39;;;;;;;1.48;0.60;;;;;;;;;;5044991;28;20038;-95
2021/10/31 13:42:10;;;;;;;0.63;0.63;;;;;;;;;;5053598;28;20033;-94
2021/10/31 13:44:36;;;;;;;0.93;0.50;;;;;;;;;;5069409;28;20052;-94
2021/10/31 13:47:06;;;;;;;1.65;0.32;;;;;;;;;;5069294;28;20024;-94
2021/10/31 13:49:33;;;;;;;0.77;0.73;;;;;;;;;;5053190;28;20135;-94
2021/10/31 13:52:02;;;;;;;1.17;0.50;;;;;;;;;;5053184;28;20025;-95
2021/10/31 13:54:29;;;;;;;3.92;0.47;;;;;;;;;;5054144;28;20033;-93
2021/10/31 13:56:55;;;;;;;2.45;0.40;;;;;;;;;;5069425;28;20037;-94
2021/10/31 13:59:25;;;;;;;0.38;0.38;;;;;;;;;;5069138;28;20025;-96
2021/10/31 14:01:57;;;;;;;1.23;0.57;;;;;;;;;;5062957;28;20078;-95
2021/10/31 14:04:29;;;;;;;1.52;0.40;;;;;;;;;;5079041;28;20029;-95
2021/10/31 14:07:03;;;;;;;0.40;0.40;;;;;;;;;;5067471;28;20130;-94
2021/10/31 14:09:29;;;;;;;1.50;0.63;;;;;;;;;;5051579;28;20029;-92
2021/10/31 14:11:57;;;;;;;0.90;0.55;;;;;;;;;;5048446;28;20037;-95
2021/10/31 14:14:27;;;;;;;0.60;0.60;;;;;;;;;;5050289;28;20389;-96
2021/10/31 14:16:53;;;;;;;0.98;0.45;;;;;;;;;;5065100;28;20025;-94
2021/10/31 14:19:19;;;;;;;1.20;0.60;;;;;;;;;;5039194;28;20164;-94
2021/10/31 14:22:04;;;;;;;1.10;0.50;;;;;;;;;;5048395;28;20029;-92